Time;durP1;ratioP1;P1;durP2;ratioP2;P2;SDS_P1;SDS_P2;PMS_P1;PMS_P2;Temp;Humidity;BMP_temperature;BMP_pressure;BME280_temperature;BME280_humidity;BME280_pressure;Samples;Min_cycle;Max_cycle;Signal;HPM_P1;HPM_P2
2023/03/30 00:01:16;;;;;;;10.17;7.00;;;;;;;12.13;90.84;97855.31;4136094;28;21193;-86
2023/03/30 00:03:21;;;;;;;8.73;6.53;;;;;;;12.13;89.61;97856.13;4128520;28;20688;-86
2023/03/30 00:05:24;;;;;;;11.27;6.07;;;;;;;12.14;88.24;97867.44;4124360;28;20664;-86
2023/03/30 00:07:28;;;;;;;11.30;6.27;;;;;;;12.13;89.02;97865.75;4125306;28;20703;-86
2023/03/30 00:09:32;;;;;;;11.90;5.67;;;;;;;12.14;88.44;97877.91;4104400;28;21053;-86
2023/03/30 00:11:36;;;;;;;8.07;5.50;;;;;;;12.11;89.17;97873.72;4119963;28;21398;-86
2023/03/30 00:13:41;;;;;;;9.20;5.90;;;;;;;12.08;90.17;97865.28;4121710;28;20636;-86
2023/03/30 00:15:44;;;;;;;12.27;6.53;;;;;;;12.08;89.92;97860.88;4136089;28;20715;-86
2023/03/30 00:17:47;;;;;;;7.93;6.23;;;;;;;12.05;91.60;97874.19;4100213;28;21513;-86
2023/03/30 00:19:51;;;;;;;12.07;6.67;;;;;;;11.93;91.34;97869.91;4125584;28;20739;-86
2023/03/30 00:21:54;;;;;;;7.90;6.20;;;;;;;11.86;92.26;97868.75;4118854;28;21273;-86
2023/03/30 00:23:57;;;;;;;10.80;6.30;;;;;;;11.87;93.15;97870.38;4122534;28;20663;-86
2023/03/30 00:26:00;;;;;;;8.80;6.93;;;;;;;11.89;92.40;97862.44;4121160;28;20721;-86
2023/03/30 00:28:03;;;;;;;8.90;5.80;;;;;;;11.90;92.82;97858.88;4121967;28;20667;-86
2023/03/30 00:30:11;;;;;;;9.33;5.73;;;;;;;11.91;93.60;97856.16;4133548;28;20645;-85
2023/03/30 00:32:14;;;;;;;12.57;6.70;;;;;;;11.95;93.72;97854.13;4120765;28;20685;-86
2023/03/30 00:34:18;;;;;;;9.50;6.47;;;;;;;11.96;95.07;97854.00;4118278;28;21382;-86
2023/03/30 00:36:21;;;;;;;12.40;7.10;;;;;;;11.98;94.05;97846.03;4132113;28;20663;-86
2023/03/30 00:38:26;;;;;;;11.40;7.27;;;;;;;12.01;93.88;97854.50;4118001;28;20663;-86
2023/03/30 00:40:31;;;;;;;11.10;6.60;;;;;;;12.06;92.62;97844.50;4117651;28;20630;-86
2023/03/30 00:42:35;;;;;;;12.20;6.23;;;;;;;12.16;93.48;97849.84;4123992;28;20735;-85
2023/03/30 00:45:14;;;;;;;12.47;6.47;;;;;;;12.26;93.03;97851.59;4126095;28;20640;-86
2023/03/30 00:47:19;;;;;;;10.90;5.60;;;;;;;12.32;93.10;97851.94;4127100;28;20679;-85
2023/03/30 00:49:22;;;;;;;10.20;4.60;;;;;;;12.38;92.21;97842.78;4145731;28;21263;-85
2023/03/30 00:51:26;;;;;;;14.60;8.60;;;;;;;12.44;92.54;97821.38;4127951;28;20701;-85
2023/03/30 00:53:33;;;;;;;8.70;5.57;;;;;;;12.47;92.47;97795.81;4111040;28;20643;-85
2023/03/30 00:55:38;;;;;;;14.90;4.97;;;;;;;12.50;93.46;97784.28;4129573;28;21821;-86
2023/03/30 00:57:43;;;;;;;8.00;4.10;;;;;;;12.53;94.06;97792.69;4120144;28;20635;-86
2023/03/30 00:59:47;;;;;;;15.07;4.57;;;;;;;12.61;94.69;97786.84;4126116;28;20635;-85
2023/03/30 01:01:51;;;;;;;9.03;3.57;;;;;;;12.69;94.49;97796.56;4122517;28;20763;-86
2023/03/30 01:03:58;;;;;;;8.37;3.53;;;;;;;12.76;95.03;97807.34;4143217;28;20698;-85
2023/03/30 01:06:03;;;;;;;8.60;3.27;;;;;;;12.83;93.77;97801.53;4130711;28;20632;-86
2023/03/30 01:08:07;;;;;;;7.17;3.10;;;;;;;12.91;94.60;97801.72;4114591;28;20699;-86
2023/03/30 01:10:11;;;;;;;13.30;4.87;;;;;;;12.96;95.08;97789.13;4111727;28;20713;-85
2023/03/30 01:12:14;;;;;;;9.33;6.37;;;;;;;12.93;94.30;97791.13;4127000;28;21306;-85
2023/03/30 01:14:17;;;;;;;11.30;5.97;;;;;;;12.80;92.80;97780.00;4122406;28;20648;-85
2023/03/30 01:16:27;;;;;;;7.57;5.43;;;;;;;12.65;91.58;97789.09;4139912;28;20650;-86
2023/03/30 01:18:36;;;;;;;9.10;6.20;;;;;;;12.57;92.83;97780.19;4109222;28;20628;-85
2023/03/30 01:21:22;;;;;;;7.50;6.00;;;;;;;12.43;92.36;97762.19;4123388;28;20697;-85
2023/03/30 01:23:56;;;;;;;8.43;6.10;;;;;;;12.38;92.65;97762.53;4126293;28;21314;-86
2023/03/30 01:26:22;;;;;;;12.43;6.07;;;;;;;12.36;92.63;97758.41;4129198;28;20688;-85
2023/03/30 01:28:39;;;;;;;9.60;5.50;;;;;;;12.34;92.48;97760.28;4106440;28;20628;-86
2023/03/30 01:30:58;;;;;;;9.00;6.57;;;;;;;12.30;92.26;97759.72;4141675;28;20637;-86
2023/03/30 01:33:30;;;;;;;11.13;6.50;;;;;;;12.27;92.48;97756.53;4122709;28;21207;-86
2023/03/30 01:35:56;;;;;;;8.90;6.90;;;;;;;12.26;93.29;97758.31;4095340;28;20639;-86
2023/03/30 01:38:33;;;;;;;14.17;7.13;;;;;;;12.25;93.10;97758.41;4123309;28;21135;-85
2023/03/30 01:40:40;;;;;;;9.30;6.30;;;;;;;12.27;93.01;97759.97;4130898;28;20646;-85
2023/03/30 01:42:50;;;;;;;10.07;6.20;;;;;;;12.19;93.45;97768.56;4121287;28;21432;-85
2023/03/30 01:44:58;;;;;;;10.60;6.90;;;;;;;12.17;94.27;97779.13;4124980;28;20674;-86
2023/03/30 01:47:07;;;;;;;7.73;5.80;;;;;;;12.17;94.28;97784.34;4122266;28;20646;-85
2023/03/30 01:49:15;;;;;;;8.67;6.50;;;;;;;12.18;95.10;97790.41;4107709;28;20662;-85
2023/03/30 01:51:20;;;;;;;11.47;7.30;;;;;;;12.19;96.04;97787.66;4117164;28;20640;-85
2023/03/30 01:53:27;;;;;;;9.00;5.97;;;;;;;12.19;95.05;97792.91;4126276;28;20659;-85
2023/03/30 01:55:33;;;;;;;8.50;7.50;;;;;;;12.19;96.06;97805.16;4123343;28;20650;-85
2023/03/30 01:57:42;;;;;;;10.30;5.93;;;;;;;12.17;95.89;97800.03;4109990;28;20633;-85
2023/03/30 01:59:51;;;;;;;9.87;6.27;;;;;;;12.15;95.11;97790.66;4138438;28;20638;-85
2023/03/30 02:02:01;;;;;;;9.80;6.67;;;;;;;12.13;95.34;97782.94;4126125;28;20639;-85
2023/03/30 02:04:06;;;;;;;8.50;6.03;;;;;;;12.07;94.77;97778.22;4117766;28;20731;-85
2023/03/30 02:06:23;;;;;;;9.63;6.40;;;;;;;12.00;94.80;97784.06;4119696;28;20636;-85
2023/03/30 02:08:39;;;;;;;13.13;6.70;;;;;;;11.93;96.62;97775.84;4122381;28;20636;-86
2023/03/30 02:10:48;;;;;;;8.30;5.10;;;;;;;11.94;94.42;97780.13;4104383;28;21207;-85
2023/03/30 02:12:59;;;;;;;7.93;4.40;;;;;;;12.07;95.78;97796.50;4113371;28;20705;-85
2023/03/30 02:15:04;;;;;;;14.53;5.63;;;;;;;12.19;95.98;97807.75;4121319;28;21245;-86
2023/03/30 02:17:12;;;;;;;8.70;5.50;;;;;;;12.29;95.23;97809.53;4136849;28;21075;-86
2023/03/30 02:19:16;;;;;;;10.67;4.50;;;;;;;12.36;96.58;97815.94;4123342;28;20759;-86
2023/03/30 02:21:20;;;;;;;14.50;6.13;;;;;;;12.39;97.30;97800.84;4123774;28;20644;-85
2023/03/30 02:23:25;;;;;;;12.00;4.83;;;;;;;12.41;96.05;97798.09;4121588;28;20629;-86
2023/03/30 02:25:28;;;;;;;11.70;4.87;;;;;;;12.45;96.26;97791.69;4107711;28;21255;-86
2023/03/30 02:27:32;;;;;;;11.57;3.20;;;;;;;12.52;96.73;97803.28;4122042;28;21079;-85
2023/03/30 02:29:39;;;;;;;15.73;4.80;;;;;;;12.58;97.06;97802.78;4132942;28;20643;-86
2023/03/30 02:31:42;;;;;;;13.40;6.40;;;;;;;12.64;96.04;97797.88;4138557;28;20677;-86
2023/03/30 02:33:58;;;;;;;9.50;3.97;;;;;;;12.72;95.21;97804.16;4114672;28;20619;-86
2023/03/30 02:36:37;;;;;;;10.30;3.67;;;;;;;12.83;94.65;97806.75;4140380;28;20745;-86
2023/03/30 02:38:53;;;;;;;13.47;3.97;;;;;;;12.90;95.28;97809.72;4072752;29;21058;-86
2023/03/30 02:41:05;;;;;;;10.13;3.40;;;;;;;12.97;95.86;97810.88;4093249;28;20727;-86
2023/03/30 02:43:23;;;;;;;10.70;4.03;;;;;;;13.03;94.61;97811.19;4119186;28;20722;-86
2023/03/30 02:45:38;;;;;;;9.10;3.43;;;;;;;13.08;94.80;97814.28;4118102;28;20777;-85
2023/03/30 02:47:49;;;;;;;11.00;3.77;;;;;;;13.12;94.56;97815.66;4108341;28;20645;-86
2023/03/30 02:49:55;;;;;;;10.33;4.20;;;;;;;13.10;95.39;97825.44;4109907;28;20636;-85
2023/03/30 02:52:06;;;;;;;9.50;5.50;;;;;;;13.07;95.15;97830.94;4107222;28;20642;-86
2023/03/30 02:54:24;;;;;;;9.57;4.90;;;;;;;13.05;96.17;97826.78;4132927;28;20649;-85
2023/03/30 02:56:52;;;;;;;10.53;5.43;;;;;;;13.04;95.75;97825.13;4118616;28;20641;-85
2023/03/30 02:58:58;;;;;;;10.23;5.47;;;;;;;13.05;95.51;97830.25;4136351;28;20630;-85
2023/03/30 03:01:07;;;;;;;7.87;4.20;;;;;;;13.08;96.02;97826.53;4104034;28;24527;-85
2023/03/30 03:03:23;;;;;;;15.20;4.43;;;;;;;13.10;96.69;97824.63;4114334;28;20700;-85
2023/03/30 03:05:31;;;;;;;9.60;4.30;;;;;;;13.14;96.54;97826.88;4117644;28;20677;-84
2023/03/30 03:07:48;;;;;;;7.97;4.10;;;;;;;13.18;96.38;97823.88;4136998;28;20694;-85
2023/03/30 03:09:52;;;;;;;19.83;4.10;;;;;;;13.23;96.18;97828.72;4135992;28;20670;-85
2023/03/30 03:11:57;;;;;;;16.63;4.10;;;;;;;13.25;96.09;97824.19;4105652;28;20681;-85
2023/03/30 03:14:06;;;;;;;8.10;3.93;;;;;;;13.29;95.28;97823.81;4136043;28;20615;-85
2023/03/30 03:16:11;;;;;;;10.53;4.20;;;;;;;13.30;95.56;97807.09;4125571;28;20634;-85
2023/03/30 03:18:25;;;;;;;12.53;5.00;;;;;;;13.26;96.61;97812.72;4124437;28;20644;-85
2023/03/30 03:20:29;;;;;;;14.87;4.07;;;;;;;13.27;95.79;97809.97;4096557;28;21206;-85
2023/03/30 03:22:33;;;;;;;11.67;3.90;;;;;;;13.30;95.64;97812.34;4117766;28;20641;-85
2023/03/30 03:24:38;;;;;;;11.43;3.53;;;;;;;13.33;95.50;97803.41;4126639;28;21095;-85
2023/03/30 03:26:44;;;;;;;10.73;3.70;;;;;;;13.38;96.00;97801.22;4123928;28;20639;-85
2023/03/30 03:28:47;;;;;;;10.60;5.20;;;;;;;13.37;96.87;97792.56;4118660;28;20626;-84
2023/03/30 03:30:50;;;;;;;9.63;3.63;;;;;;;13.34;97.04;97745.66;4132345;28;20686;-85
2023/03/30 03:32:58;;;;;;;10.30;3.13;;;;;;;13.28;98.73;97722.59;4106607;28;20685;-84
2023/03/30 03:35:03;;;;;;;10.70;3.77;;;;;;;13.29;99.46;97791.53;4105861;28;21116;-85
2023/03/30 03:37:07;;;;;;;13.80;4.23;;;;;;;13.32;100.00;97759.84;4122429;28;20638;-85
2023/03/30 03:39:11;;;;;;;14.70;4.87;;;;;;;13.36;99.86;97748.16;4103987;28;20713;-85
2023/03/30 03:41:15;;;;;;;15.23;3.80;;;;;;;13.39;100.00;97756.56;4111665;28;20641;-84
2023/03/30 03:43:18;;;;;;;13.70;3.87;;;;;;;13.44;100.00;97764.03;4101365;28;21287;-84
2023/03/30 03:45:21;;;;;;;12.07;3.50;;;;;;;13.50;100.00;97771.38;4120081;28;21248;-85
2023/03/30 03:47:34;;;;;;;13.20;3.60;;;;;;;13.56;100.00;97781.34;4116385;28;20638;-85
2023/03/30 03:49:39;;;;;;;10.07;3.60;;;;;;;13.60;99.04;97774.88;4119768;28;20724;-85
2023/03/30 03:51:42;;;;;;;11.33;3.40;;;;;;;13.63;98.92;97764.16;4104082;28;20637;-84
2023/03/30 03:53:48;;;;;;;14.70;3.53;;;;;;;13.64;100.00;97767.44;4122071;28;21218;-84
2023/03/30 03:55:51;;;;;;;10.20;3.47;;;;;;;13.64;99.69;97757.94;4107761;28;20720;-85
2023/03/30 03:57:54;;;;;;;10.90;3.80;;;;;;;13.66;99.57;97759.47;4125576;28;20710;-85
2023/03/30 03:59:58;;;;;;;16.20;3.90;;;;;;;13.66;99.28;97759.47;4108546;28;20633;-85
2023/03/30 04:02:02;;;;;;;14.97;4.53;;;;;;;13.67;99.52;97748.84;4124354;28;20638;-85
2023/03/30 04:04:05;;;;;;;12.90;3.43;;;;;;;13.69;99.23;97757.41;4120189;28;21130;-85
2023/03/30 04:06:10;;;;;;;11.00;3.90;;;;;;;13.72;99.29;97740.59;4105446;28;20775;-85
2023/03/30 04:08:16;;;;;;;16.97;6.43;;;;;;;13.72;99.55;97744.03;4124352;28;20629;-85
2023/03/30 04:10:21;;;;;;;17.73;6.03;;;;;;;13.71;99.88;97745.00;4105796;28;20708;-84
2023/03/30 04:12:41;;;;;;;12.63;4.20;;;;;;;13.73;99.88;97756.19;4121560;28;22010;-84
2023/03/30 04:14:58;;;;;;;19.70;3.80;;;;;;;13.72;100.00;97751.88;4105237;28;20642;-84
2023/03/30 04:17:22;;;;;;;21.10;6.10;;;;;;;13.69;100.00;97751.34;4116224;28;20657;-84
2023/03/30 04:20:03;;;;;;;17.43;4.17;;;;;;;13.67;100.00;97750.66;4072275;29;20759;-84
2023/03/30 04:22:35;;;;;;;9.63;3.90;;;;;;;13.68;100.00;97741.81;4107818;28;20638;-84
2023/03/30 04:25:04;;;;;;;14.10;4.27;;;;;;;13.67;100.00;97735.75;4115850;28;20649;-84
2023/03/30 04:27:37;;;;;;;15.70;4.20;;;;;;;13.64;100.00;97723.88;4139435;28;20632;-84
2023/03/30 04:30:11;;;;;;;10.73;3.97;;;;;;;13.63;100.00;97724.84;4059946;29;20663;-84
2023/03/30 04:32:19;;;;;;;11.70;4.13;;;;;;;13.60;100.00;97712.81;4122020;28;20734;-84
2023/03/30 04:34:53;;;;;;;12.70;3.87;;;;;;;13.54;100.00;97700.25;4116552;28;20660;-84
2023/03/30 04:37:28;;;;;;;10.10;4.10;;;;;;;13.52;100.00;97706.59;4115191;28;20648;-84
2023/03/30 04:40:00;;;;;;;16.00;3.93;;;;;;;13.49;100.00;97710.28;4120048;28;21887;-84
2023/03/30 04:42:29;;;;;;;13.10;4.70;;;;;;;13.49;100.00;97715.53;4124305;28;20641;-84
2023/03/30 04:44:54;;;;;;;17.13;5.37;;;;;;;13.52;100.00;97704.78;4119662;28;20703;-84
2023/03/30 04:47:14;;;;;;;14.50;4.03;;;;;;;13.54;100.00;97695.00;4105186;28;20661;-84
2023/03/30 04:49:46;;;;;;;8.77;3.50;;;;;;;13.55;100.00;97685.38;4105958;28;21567;-85
2023/03/30 04:52:08;;;;;;;13.87;5.13;;;;;;;13.56;100.00;97679.16;4137298;28;20626;-84
2023/03/30 04:54:30;;;;;;;11.90;4.63;;;;;;;13.55;100.00;97672.28;4109667;28;20670;-84
2023/03/30 04:56:55;;;;;;;18.47;5.30;;;;;;;13.54;100.00;97657.50;4118301;28;20636;-85
2023/03/30 04:59:21;;;;;;;11.80;4.83;;;;;;;13.53;100.00;97635.72;4103189;28;20746;-84
2023/03/30 05:01:44;;;;;;;15.87;4.33;;;;;;;13.53;100.00;97642.72;4125015;28;20632;-84
2023/03/30 05:04:07;;;;;;;19.07;4.30;;;;;;;13.54;100.00;97644.41;4140277;28;20712;-84
2023/03/30 05:06:29;;;;;;;17.40;4.40;;;;;;;13.58;100.00;97640.56;4122128;28;20706;-84
2023/03/30 05:08:49;;;;;;;11.53;3.83;;;;;;;13.60;100.00;97633.38;4103412;28;21315;-84
2023/03/30 05:11:22;;;;;;;12.70;3.80;;;;;;;13.62;100.00;97636.69;4118514;28;20745;-84
2023/03/30 05:13:47;;;;;;;14.73;4.90;;;;;;;13.63;100.00;97639.19;4121088;28;21323;-84
2023/03/30 05:16:09;;;;;;;17.30;5.30;;;;;;;13.67;100.00;97646.63;4124121;28;20732;-84
2023/03/30 05:18:31;;;;;;;12.00;4.47;;;;;;;13.72;100.00;97646.22;4131581;28;20669;-84
2023/03/30 05:20:56;;;;;;;11.70;5.40;;;;;;;13.74;100.00;97637.28;4112055;28;20636;-84
2023/03/30 05:23:12;;;;;;;15.00;6.63;;;;;;;13.70;100.00;97641.13;4120246;28;20639;-84
2023/03/30 05:25:47;;;;;;;15.40;7.47;;;;;;;13.60;100.00;97639.44;4107843;28;21605;-84
2023/03/30 05:28:29;;;;;;;17.50;7.07;;;;;;;13.50;100.00;97636.00;4110907;28;20652;-85
2023/03/30 05:30:55;;;;;;;12.07;7.67;;;;;;;13.48;100.00;97637.06;4095967;28;20753;-85
2023/03/30 05:33:16;;;;;;;11.63;7.33;;;;;;;13.46;100.00;97633.75;4105223;28;20634;-86
2023/03/30 05:35:28;;;;;;;13.13;7.30;;;;;;;13.44;100.00;97625.19;4124803;28;20659;-85
2023/03/30 05:37:48;;;;;;;17.17;8.60;;;;;;;13.43;100.00;97628.78;4120270;28;20756;-85
2023/03/30 05:40:19;;;;;;;17.57;6.90;;;;;;;13.42;100.00;97627.94;4143633;28;20214;-85
2023/03/30 05:42:40;;;;;;;13.93;7.63;;;;;;;13.42;100.00;97627.13;4124326;28;20716;-85
2023/03/30 05:45:08;;;;;;;11.40;7.37;;;;;;;13.41;100.00;97617.59;4122800;28;20652;-85
2023/03/30 05:47:38;;;;;;;11.23;7.00;;;;;;;13.38;100.00;97613.47;4118047;28;20712;-85
2023/03/30 05:49:48;;;;;;;11.13;7.03;;;;;;;13.36;100.00;97601.47;4125238;28;20641;-86
2023/03/30 05:52:01;;;;;;;13.83;7.17;;;;;;;13.35;100.00;97595.41;4117911;28;20676;-85
2023/03/30 05:54:22;;;;;;;19.27;6.13;;;;;;;13.35;100.00;97592.78;4130604;28;20724;-85
2023/03/30 05:56:34;;;;;;;15.70;5.97;;;;;;;13.37;100.00;97590.84;4125466;28;21304;-85
2023/03/30 05:58:54;;;;;;;14.00;6.43;;;;;;;13.38;100.00;97605.63;4126760;28;20642;-85
2023/03/30 06:01:16;;;;;;;11.23;6.00;;;;;;;13.39;100.00;97593.34;4126039;28;20637;-85
2023/03/30 06:03:23;;;;;;;13.20;6.30;;;;;;;13.34;100.00;97598.97;4128831;28;20692;-85
2023/03/30 06:05:26;;;;;;;16.83;8.57;;;;;;;13.31;100.00;97598.44;4112211;28;20685;-85
2023/03/30 06:07:30;;;;;;;13.13;7.53;;;;;;;13.28;100.00;97596.88;4103023;28;20662;-85
2023/03/30 06:09:33;;;;;;;17.98;9.20;;;;;;;13.29;100.00;97606.41;4115153;28;20756;-85
2023/03/30 06:11:43;;;;;;;15.43;8.63;;;;;;;13.28;100.00;97620.47;4124088;28;20214;-85
2023/03/30 06:13:59;;;;;;;15.50;9.20;;;;;;;13.27;100.00;97644.16;4138717;28;20683;-85
2023/03/30 06:16:03;;;;;;;16.50;9.27;;;;;;;13.28;100.00;97651.88;4135692;28;20736;-85
2023/03/30 06:18:07;;;;;;;13.65;7.40;;;;;;;13.31;100.00;97661.28;4120075;28;20829;-85
2023/03/30 06:20:15;;;;;;;17.87;7.73;;;;;;;13.32;100.00;97679.47;4120534;28;20210;-85
2023/03/30 06:22:21;;;;;;;15.57;7.07;;;;;;;13.34;100.00;97697.69;4117424;28;20665;-85
2023/03/30 06:24:53;;;;;;;21.10;8.20;;;;;;;13.34;100.00;97695.06;4125309;28;20644;-86
2023/03/30 06:26:57;;;;;;;18.20;8.10;;;;;;;13.29;100.00;97710.31;4125524;28;20789;-86
2023/03/30 06:29:00;;;;;;;22.43;7.73;;;;;;;13.27;100.00;97720.13;4139123;28;20710;-85
2023/03/30 06:31:08;;;;;;;18.80;7.33;;;;;;;13.26;100.00;97716.69;4117497;28;21020;-85
2023/03/30 06:33:11;;;;;;;21.10;7.97;;;;;;;13.30;100.00;97725.09;4109370;28;20643;-85
2023/03/30 06:35:21;;;;;;;17.30;7.53;;;;;;;13.34;100.00;97739.59;4105936;28;20632;-85
2023/03/30 06:37:26;;;;;;;16.67;7.47;;;;;;;13.36;100.00;97735.88;4123109;28;20690;-85
2023/03/30 06:39:29;;;;;;;15.90;7.87;;;;;;;13.38;100.00;97733.13;4108179;28;20989;-85
2023/03/30 06:41:32;;;;;;;14.90;7.57;;;;;;;13.40;100.00;97731.22;4122802;28;21040;-85
2023/03/30 06:43:38;;;;;;;17.00;7.53;;;;;;;13.46;100.00;97746.41;4126487;28;20634;-85
2023/03/30 06:45:50;;;;;;;15.43;7.70;;;;;;;13.51;100.00;97739.81;4109730;28;20638;-85
2023/03/30 06:47:54;;;;;;;15.30;7.27;;;;;;;13.55;100.00;97743.00;4112898;28;20684;-85
2023/03/30 06:49:58;;;;;;;14.70;7.83;;;;;;;13.63;100.00;97749.25;4121732;28;20634;-85
2023/03/30 06:52:23;;;;;;;13.13;7.50;;;;;;;13.70;100.00;97763.50;4119916;28;20651;-85
2023/03/30 06:54:26;;;;;;;13.83;6.70;;;;;;;13.71;100.00;97770.38;4125852;28;20643;-85
2023/03/30 06:56:39;;;;;;;13.47;7.10;;;;;;;13.70;100.00;97768.72;4138925;28;21099;-85
2023/03/30 06:58:45;;;;;;;13.80;7.20;;;;;;;13.71;100.00;97763.34;4125330;28;20652;-85
2023/03/30 07:00:49;;;;;;;17.27;7.73;;;;;;;13.73;100.00;97771.09;4121127;28;20656;-85
2023/03/30 07:02:58;;;;;;;17.07;7.13;;;;;;;13.75;100.00;97777.84;4124919;28;20986;-85
2023/03/30 07:05:11;;;;;;;14.87;8.10;;;;;;;13.77;100.00;97783.81;4109725;28;20669;-85
2023/03/30 07:07:32;;;;;;;18.42;8.70;;;;;;;13.78;100.00;97792.47;4141040;28;20823;-85
2023/03/30 07:09:35;;;;;;;12.83;7.73;;;;;;;13.80;100.00;97788.78;4127728;28;20217;-85
2023/03/30 07:11:39;;;;;;;15.83;7.00;;;;;;;13.81;100.00;97782.56;4111525;28;20645;-85
2023/03/30 07:13:42;;;;;;;13.53;7.03;;;;;;;13.83;100.00;97796.38;4120100;28;21255;-85
2023/03/30 07:15:46;;;;;;;13.50;7.10;;;;;;;13.83;100.00;97796.38;4136655;28;20637;-83
2023/03/30 07:17:49;;;;;;;16.37;6.50;;;;;;;13.87;100.00;97810.88;4118447;28;20649;-85
2023/03/30 07:19:53;;;;;;;20.00;7.23;;;;;;;13.88;100.00;97824.81;4113871;28;20643;-82
2023/03/30 07:21:56;;;;;;;17.87;8.13;;;;;;;13.87;100.00;97823.97;4119829;28;20636;-83
2023/03/30 07:24:03;;;;;;;13.10;6.70;;;;;;;13.84;100.00;97826.84;4135238;28;21055;-83
2023/03/30 07:26:10;;;;;;;17.40;8.17;;;;;;;13.83;100.00;97821.75;4127264;28;21052;-82
2023/03/30 07:28:25;;;;;;;13.23;6.70;;;;;;;13.80;100.00;97833.34;4121189;28;20656;-82
2023/03/30 07:30:29;;;;;;;17.57;7.20;;;;;;;13.83;100.00;97834.84;4122791;28;20641;-83
2023/03/30 07:32:55;;;;;;;19.43;9.60;;;;;;;13.83;100.00;97843.56;4104558;28;20673;-84
2023/03/30 07:35:05;;;;;;;25.13;10.43;;;;;;;13.80;100.00;97850.84;4120812;28;21270;-83
2023/03/30 07:37:15;;;;;;;19.60;7.80;;;;;;;13.81;100.00;97847.28;4119097;28;20640;-84
2023/03/30 07:39:26;;;;;;;19.03;7.10;;;;;;;13.80;100.00;97843.84;4117892;28;20631;-84
2023/03/30 07:41:30;;;;;;;16.40;7.00;;;;;;;13.86;100.00;97856.41;4102461;28;20742;-82
2023/03/30 07:43:34;;;;;;;17.13;7.03;;;;;;;13.93;100.00;97875.91;4138688;28;20720;-83
2023/03/30 07:45:39;;;;;;;16.30;6.70;;;;;;;13.94;100.00;97885.44;4125740;28;20703;-83
2023/03/30 07:47:45;;;;;;;14.20;6.03;;;;;;;13.96;100.00;97888.75;4136529;28;20678;-83
2023/03/30 07:49:48;;;;;;;16.73;6.33;;;;;;;13.99;100.00;97885.03;4104045;28;20621;-82
2023/03/30 07:51:51;;;;;;;17.57;5.73;;;;;;;13.98;100.00;97878.97;4125720;28;21094;-81
2023/03/30 07:53:59;;;;;;;15.10;5.50;;;;;;;13.97;100.00;97851.09;4102852;28;20632;-81
2023/03/30 07:56:13;;;;;;;14.67;6.80;;;;;;;13.95;100.00;97844.28;4142256;28;20655;-81
2023/03/30 07:58:21;;;;;;;14.67;6.80;;;;;;;13.86;100.00;97861.66;4134087;28;20684;-81
2023/03/30 08:00:24;;;;;;;16.30;6.40;;;;;;;13.88;100.00;97864.16;4137616;28;20644;-81
2023/03/30 08:03:00;;;;;;;15.97;5.77;;;;;;;13.94;100.00;97855.78;4121722;28;20659;-82
2023/03/30 08:05:05;;;;;;;14.77;5.30;;;;;;;13.99;100.00;97835.22;4137536;28;20671;-82
2023/03/30 08:07:18;;;;;;;18.00;6.33;;;;;;;14.02;100.00;97838.41;4114310;28;20943;-82
2023/03/30 08:09:26;;;;;;;15.57;5.30;;;;;;;14.05;100.00;97842.59;4123997;28;20665;-81
2023/03/30 08:11:31;;;;;;;19.30;6.50;;;;;;;14.07;100.00;97856.41;4120773;28;20753;-82
2023/03/30 08:13:36;;;;;;;15.43;6.10;;;;;;;14.09;100.00;97863.19;4137071;28;20645;-82
2023/03/30 08:15:40;;;;;;;20.07;5.80;;;;;;;14.10;100.00;97877.13;4118772;28;20741;-81
2023/03/30 08:17:43;;;;;;;12.37;5.50;;;;;;;14.04;100.00;97873.19;4108407;28;20638;-81
2023/03/30 08:19:47;;;;;;;18.83;6.40;;;;;;;14.01;100.00;97870.84;4125008;28;20662;-84
2023/03/30 08:21:50;;;;;;;13.73;5.87;;;;;;;14.06;100.00;97873.94;4128157;28;20625;-84
2023/03/30 08:23:54;;;;;;;13.37;5.47;;;;;;;14.10;100.00;97888.41;4121608;28;20636;-84
2023/03/30 08:25:58;;;;;;;18.33;5.67;;;;;;;14.12;100.00;97910.13;4119424;28;21061;-83
2023/03/30 08:28:04;;;;;;;19.20;7.10;;;;;;;14.14;100.00;97926.56;4123631;28;21285;-84
2023/03/30 08:30:08;;;;;;;18.07;7.13;;;;;;;14.16;100.00;97924.63;4117776;28;20214;-84
2023/03/30 08:32:11;;;;;;;15.40;6.13;;;;;;;14.16;100.00;97928.09;4103650;28;20630;-83
2023/03/30 08:34:14;;;;;;;16.90;6.90;;;;;;;14.16;100.00;97929.88;4100111;28;20634;-83
2023/03/30 08:36:19;;;;;;;13.47;6.10;;;;;;;14.17;100.00;97934.16;4116706;28;20646;-83
2023/03/30 08:38:22;;;;;;;18.83;5.83;;;;;;;14.16;100.00;97920.22;4119059;28;20740;-82
2023/03/30 08:40:25;;;;;;;19.50;5.83;;;;;;;14.15;100.00;97936.91;4121100;28;20645;-83
2023/03/30 08:42:45;;;;;;;15.07;5.77;;;;;;;14.16;100.00;97937.75;4126675;28;20744;-83
2023/03/30 08:44:53;;;;;;;12.23;5.73;;;;;;;14.18;100.00;97938.47;4123778;28;20673;-83
2023/03/30 08:46:56;;;;;;;12.70;5.67;;;;;;;14.19;100.00;97927.84;4124159;28;20652;-82
2023/03/30 08:49:01;;;;;;;15.50;6.97;;;;;;;14.18;100.00;97923.53;4117129;28;20662;-82
2023/03/30 08:51:08;;;;;;;15.97;5.57;;;;;;;14.20;100.00;97905.06;4120073;28;20728;-84
2023/03/30 08:53:12;;;;;;;15.97;6.63;;;;;;;14.22;100.00;97896.09;4115132;28;20654;-83
2023/03/30 08:55:23;;;;;;;16.70;6.23;;;;;;;14.25;100.00;97864.34;4135597;28;20626;-83
2023/03/30 08:57:35;;;;;;;14.47;7.33;;;;;;;14.26;100.00;97844.19;4115136;28;21273;-83
2023/03/30 08:59:44;;;;;;;10.17;5.77;;;;;;;14.27;100.00;97838.81;4138157;28;20668;-83
2023/03/30 09:01:51;;;;;;;12.23;5.70;;;;;;;14.30;100.00;97861.34;4137061;28;20736;-83
2023/03/30 09:04:15;;;;;;;13.50;6.00;;;;;;;14.29;100.00;97867.53;4119356;28;20683;-82
2023/03/30 09:06:23;;;;;;;12.40;6.00;;;;;;;14.29;100.00;97880.66;4135909;28;20724;-83
2023/03/30 09:08:28;;;;;;;13.67;7.00;;;;;;;14.27;100.00;97869.47;4122368;28;20649;-82
2023/03/30 09:10:35;;;;;;;9.43;5.07;;;;;;;14.27;100.00;97851.09;4125794;28;21087;-83
2023/03/30 09:12:41;;;;;;;13.60;5.00;;;;;;;14.27;100.00;97848.47;4123547;28;20742;-83
2023/03/30 09:14:48;;;;;;;11.77;5.40;;;;;;;14.25;100.00;97850.38;4112011;28;20692;-83
2023/03/30 09:16:58;;;;;;;13.80;5.50;;;;;;;14.21;100.00;97859.50;4127615;28;20874;-83
2023/03/30 09:19:03;;;;;;;14.63;5.50;;;;;;;14.18;100.00;97852.72;4128407;28;20861;-83
2023/03/30 09:21:09;;;;;;;12.30;5.80;;;;;;;14.15;100.00;97858.22;4130004;28;20665;-83
2023/03/30 09:23:15;;;;;;;14.20;5.90;;;;;;;14.17;100.00;97852.84;4108848;28;20638;-83
2023/03/30 09:25:20;;;;;;;18.60;5.63;;;;;;;14.18;100.00;97855.34;4130072;28;20748;-83
2023/03/30 09:27:29;;;;;;;13.40;5.70;;;;;;;14.18;100.00;97854.53;4120415;28;21199;-83
2023/03/30 09:29:33;;;;;;;13.43;5.30;;;;;;;14.20;100.00;97865.69;4137504;28;20870;-83
2023/03/30 09:31:40;;;;;;;13.47;5.80;;;;;;;14.18;100.00;97865.00;4118949;28;20649;-83
2023/03/30 09:33:48;;;;;;;9.57;4.80;;;;;;;14.20;100.00;97873.56;4131809;28;20645;-83
2023/03/30 09:35:59;;;;;;;7.53;5.10;;;;;;;14.22;100.00;97874.25;4118707;28;20668;-83
2023/03/30 09:38:03;;;;;;;7.77;4.93;;;;;;;14.27;100.00;97875.53;4123576;28;20632;-83
2023/03/30 09:40:20;;;;;;;10.13;5.23;;;;;;;14.32;100.00;97873.34;4125622;28;20616;-83
2023/03/30 09:42:32;;;;;;;11.67;5.60;;;;;;;14.35;100.00;97872.25;4124224;28;20649;-83
2023/03/30 09:44:39;;;;;;;10.90;5.10;;;;;;;14.37;100.00;97872.94;4123990;28;20638;-83
2023/03/30 09:46:42;;;;;;;8.73;4.73;;;;;;;14.36;100.00;97880.00;4126063;28;20637;-83
2023/03/30 09:48:48;;;;;;;14.37;7.00;;;;;;;14.41;100.00;97884.84;4123142;28;20653;-83
2023/03/30 09:50:51;;;;;;;12.50;6.17;;;;;;;14.47;100.00;97893.00;4116124;28;20722;-83
2023/03/30 09:53:00;;;;;;;11.40;5.43;;;;;;;14.57;100.00;97898.28;4124821;28;25161;-84
2023/03/30 09:55:18;;;;;;;9.20;5.33;;;;;;;14.65;100.00;97901.91;4130677;28;20729;-83
2023/03/30 09:57:27;;;;;;;11.47;4.90;;;;;;;14.73;100.00;97900.28;4111087;28;21314;-85
2023/03/30 09:59:33;;;;;;;7.53;5.20;;;;;;;14.76;100.00;97900.00;4113184;28;20635;-86
2023/03/30 10:01:37;;;;;;;11.00;5.10;;;;;;;14.77;100.00;97912.16;4128880;28;20640;-86
2023/03/30 10:03:42;;;;;;;12.10;4.63;;;;;;;14.77;100.00;97900.81;4119833;28;21193;-86
2023/03/30 10:06:01;;;;;;;6.17;4.27;;;;;;;14.80;100.00;97903.19;4121427;28;20673;-86